sensor_id;sensor_type;location;lat;lon;timestamp;temperature;humidity
22781;DHT22;11557;50.884;4.322;2023-03-21T00:00:20;12.50;99.90
22781;DHT22;11557;50.884;4.322;2023-03-21T00:02:46;12.50;99.90
22781;DHT22;11557;50.884;4.322;2023-03-21T00:05:12;12.50;99.90
22781;DHT22;11557;50.884;4.322;2023-03-21T00:07:38;12.60;99.90
22781;DHT22;11557;50.884;4.322;2023-03-21T00:10:05;12.60;99.90
22781;DHT22;11557;50.884;4.322;2023-03-21T00:12:31;12.50;99.90
22781;DHT22;11557;50.884;4.322;2023-03-21T00:14:59;12.30;99.90
22781;DHT22;11557;50.884;4.322;2023-03-21T00:17:30;12.30;99.90
22781;DHT22;11557;50.884;4.322;2023-03-21T00:19:58;12.40;99.90
22781;DHT22;11557;50.884;4.322;2023-03-21T00:22:24;12.40;99.90
22781;DHT22;11557;50.884;4.322;2023-03-21T00:24:52;12.30;99.90
22781;DHT22;11557;50.884;4.322;2023-03-21T00:27:18;12.20;99.90
22781;DHT22;11557;50.884;4.322;2023-03-21T00:29:46;12.30;99.90
22781;DHT22;11557;50.884;4.322;2023-03-21T00:32:16;12.30;99.90
22781;DHT22;11557;50.884;4.322;2023-03-21T00:34:42;12.20;99.90
22781;DHT22;11557;50.884;4.322;2023-03-21T00:37:09;12.20;99.90
22781;DHT22;11557;50.884;4.322;2023-03-21T00:39:37;12.20;99.90
22781;DHT22;11557;50.884;4.322;2023-03-21T00:42:03;12.30;99.90
22781;DHT22;11557;50.884;4.322;2023-03-21T00:44:29;12.30;99.90
22781;DHT22;11557;50.884;4.322;2023-03-21T00:47:02;12.30;99.90
22781;DHT22;11557;50.884;4.322;2023-03-21T00:49:28;12.30;99.90
22781;DHT22;11557;50.884;4.322;2023-03-21T00:52:02;12.30;99.90
22781;DHT22;11557;50.884;4.322;2023-03-21T00:54:28;12.40;99.90
22781;DHT22;11557;50.884;4.322;2023-03-21T00:56:54;12.40;99.90
22781;DHT22;11557;50.884;4.322;2023-03-21T00:59:20;12.40;99.90
22781;DHT22;11557;50.884;4.322;2023-03-21T01:01:46;12.20;99.90
22781;DHT22;11557;50.884;4.322;2023-03-21T01:04:13;12.30;99.90
22781;DHT22;11557;50.884;4.322;2023-03-21T01:06:42;12.30;99.90
22781;DHT22;11557;50.884;4.322;2023-03-21T01:09:17;12.30;99.90
22781;DHT22;11557;50.884;4.322;2023-03-21T01:11:44;12.20;99.90
22781;DHT22;11557;50.884;4.322;2023-03-21T01:14:10;12.20;99.90
22781;DHT22;11557;50.884;4.322;2023-03-21T01:16:37;12.30;99.90
22781;DHT22;11557;50.884;4.322;2023-03-21T01:19:04;12.40;99.90
22781;DHT22;11557;50.884;4.322;2023-03-21T01:21:31;12.40;99.90
22781;DHT22;11557;50.884;4.322;2023-03-21T01:23:57;12.40;99.90
22781;DHT22;11557;50.884;4.322;2023-03-21T01:26:22;12.40;99.90
22781;DHT22;11557;50.884;4.322;2023-03-21T01:28:48;12.40;99.90
22781;DHT22;11557;50.884;4.322;2023-03-21T01:31:16;12.40;99.90
22781;DHT22;11557;50.884;4.322;2023-03-21T01:33:42;12.50;99.90
22781;DHT22;11557;50.884;4.322;2023-03-21T01:36:14;12.30;99.90
22781;DHT22;11557;50.884;4.322;2023-03-21T01:38:41;12.30;99.90
22781;DHT22;11557;50.884;4.322;2023-03-21T01:41:08;12.50;99.90
22781;DHT22;11557;50.884;4.322;2023-03-21T01:43:37;12.40;99.90
22781;DHT22;11557;50.884;4.322;2023-03-21T01:46:49;12.40;99.90
22781;DHT22;11557;50.884;4.322;2023-03-21T01:49:39;12.50;99.90
22781;DHT22;11557;50.884;4.322;2023-03-21T01:52:11;12.40;99.90
22781;DHT22;11557;50.884;4.322;2023-03-21T01:54:40;12.40;99.90
22781;DHT22;11557;50.884;4.322;2023-03-21T01:57:09;12.30;99.90
22781;DHT22;11557;50.884;4.322;2023-03-21T01:59:44;12.30;99.90
22781;DHT22;11557;50.884;4.322;2023-03-21T02:02:20;12.30;99.90
22781;DHT22;11557;50.884;4.322;2023-03-21T02:04:50;12.40;99.90
22781;DHT22;11557;50.884;4.322;2023-03-21T02:07:31;12.30;99.90
22781;DHT22;11557;50.884;4.322;2023-03-21T02:10:04;12.30;99.90
22781;DHT22;11557;50.884;4.322;2023-03-21T02:12:33;12.40;99.90
22781;DHT22;11557;50.884;4.322;2023-03-21T02:14:59;12.30;99.90
22781;DHT22;11557;50.884;4.322;2023-03-21T02:40:11;12.50;99.90
22781;DHT22;11557;50.884;4.322;2023-03-21T02:42:54;12.30;99.90
22781;DHT22;11557;50.884;4.322;2023-03-21T02:45:41;12.30;99.90
22781;DHT22;11557;50.884;4.322;2023-03-21T02:48:12;12.30;99.90
22781;DHT22;11557;50.884;4.322;2023-03-21T02:50:41;12.50;99.90
22781;DHT22;11557;50.884;4.322;2023-03-21T02:53:09;12.50;99.90
22781;DHT22;11557;50.884;4.322;2023-03-21T02:55:36;12.50;99.90
22781;DHT22;11557;50.884;4.322;2023-03-21T02:58:07;12.40;99.90
22781;DHT22;11557;50.884;4.322;2023-03-21T03:00:34;12.50;99.90
22781;DHT22;11557;50.884;4.322;2023-03-21T03:03:01;12.50;99.90
22781;DHT22;11557;50.884;4.322;2023-03-21T03:05:30;12.60;99.90
22781;DHT22;11557;50.884;4.322;2023-03-21T03:08:02;12.50;99.90
22781;DHT22;11557;50.884;4.322;2023-03-21T03:10:52;12.40;99.90
22781;DHT22;11557;50.884;4.322;2023-03-21T03:19:04;12.40;99.90
22781;DHT22;11557;50.884;4.322;2023-03-21T03:21:46;12.40;99.90
22781;DHT22;11557;50.884;4.322;2023-03-21T03:24:25;12.40;99.90
22781;DHT22;11557;50.884;4.322;2023-03-21T03:27:15;12.30;99.90
22781;DHT22;11557;50.884;4.322;2023-03-21T03:29:45;12.30;99.90
22781;DHT22;11557;50.884;4.322;2023-03-21T03:32:16;12.20;99.90
22781;DHT22;11557;50.884;4.322;2023-03-21T03:34:48;12.20;99.90
22781;DHT22;11557;50.884;4.322;2023-03-21T03:37:19;12.20;99.90
22781;DHT22;11557;50.884;4.322;2023-03-21T03:39:56;12.20;99.90
22781;DHT22;11557;50.884;4.322;2023-03-21T03:42:39;12.30;99.90
22781;DHT22;11557;50.884;4.322;2023-03-21T03:45:07;12.40;99.90
22781;DHT22;11557;50.884;4.322;2023-03-21T03:52:56;12.30;99.90
22781;DHT22;11557;50.884;4.322;2023-03-21T03:55:25;12.30;99.90
22781;DHT22;11557;50.884;4.322;2023-03-21T03:57:53;12.20;99.90
22781;DHT22;11557;50.884;4.322;2023-03-21T04:00:19;12.20;99.90
22781;DHT22;11557;50.884;4.322;2023-03-21T04:02:45;12.20;99.90
22781;DHT22;11557;50.884;4.322;2023-03-21T04:05:12;12.30;99.90
22781;DHT22;11557;50.884;4.322;2023-03-21T04:07:38;12.50;99.90
22781;DHT22;11557;50.884;4.322;2023-03-21T04:10:04;12.50;99.90
22781;DHT22;11557;50.884;4.322;2023-03-21T04:12:30;12.50;99.90
22781;DHT22;11557;50.884;4.322;2023-03-21T04:14:55;12.40;99.90
22781;DHT22;11557;50.884;4.322;2023-03-21T04:17:21;12.30;99.90
22781;DHT22;11557;50.884;4.322;2023-03-21T04:19:48;12.20;99.90
22781;DHT22;11557;50.884;4.322;2023-03-21T04:22:16;12.20;99.90
22781;DHT22;11557;50.884;4.322;2023-03-21T04:24:42;12.30;99.90
22781;DHT22;11557;50.884;4.322;2023-03-21T04:27:09;12.40;99.90
22781;DHT22;11557;50.884;4.322;2023-03-21T04:29:34;12.40;99.90
22781;DHT22;11557;50.884;4.322;2023-03-21T04:32:00;12.40;99.90
22781;DHT22;11557;50.884;4.322;2023-03-21T04:34:27;12.30;99.90
22781;DHT22;11557;50.884;4.322;2023-03-21T04:36:53;12.20;99.90
22781;DHT22;11557;50.884;4.322;2023-03-21T04:39:20;12.30;99.90
22781;DHT22;11557;50.884;4.322;2023-03-21T04:41:46;12.30;99.90
22781;DHT22;11557;50.884;4.322;2023-03-21T04:44:14;12.30;99.90
22781;DHT22;11557;50.884;4.322;2023-03-21T04:46:40;12.40;99.90
22781;DHT22;11557;50.884;4.322;2023-03-21T04:49:07;12.30;99.90
22781;DHT22;11557;50.884;4.322;2023-03-21T04:51:33;12.30;99.90
22781;DHT22;11557;50.884;4.322;2023-03-21T04:53:59;12.30;99.90
22781;DHT22;11557;50.884;4.322;2023-03-21T04:56:26;12.40;99.90
22781;DHT22;11557;50.884;4.322;2023-03-21T04:58:58;12.40;99.90
22781;DHT22;11557;50.884;4.322;2023-03-21T05:01:24;12.40;99.90
22781;DHT22;11557;50.884;4.322;2023-03-21T05:03:51;12.50;99.90
22781;DHT22;11557;50.884;4.322;2023-03-21T05:06:17;12.50;99.90
22781;DHT22;11557;50.884;4.322;2023-03-21T05:08:43;12.40;99.90
22781;DHT22;11557;50.884;4.322;2023-03-21T05:11:08;12.50;99.90
22781;DHT22;11557;50.884;4.322;2023-03-21T05:13:34;12.50;99.90
22781;DHT22;11557;50.884;4.322;2023-03-21T05:16:00;12.50;99.90
22781;DHT22;11557;50.884;4.322;2023-03-21T05:18:26;12.50;99.90
22781;DHT22;11557;50.884;4.322;2023-03-21T05:20:53;12.50;99.90
22781;DHT22;11557;50.884;4.322;2023-03-21T05:23:23;12.50;99.90
22781;DHT22;11557;50.884;4.322;2023-03-21T05:25:49;12.40;99.90
22781;DHT22;11557;50.884;4.322;2023-03-21T05:28:15;12.50;99.90
22781;DHT22;11557;50.884;4.322;2023-03-21T05:30:45;12.50;99.90
22781;DHT22;11557;50.884;4.322;2023-03-21T05:33:11;12.60;99.90
22781;DHT22;11557;50.884;4.322;2023-03-21T05:35:38;12.50;99.90
22781;DHT22;11557;50.884;4.322;2023-03-21T05:38:03;12.60;99.90
22781;DHT22;11557;50.884;4.322;2023-03-21T05:40:29;12.60;99.90
22781;DHT22;11557;50.884;4.322;2023-03-21T05:42:55;12.40;99.90
22781;DHT22;11557;50.884;4.322;2023-03-21T05:45:21;12.40;99.90
22781;DHT22;11557;50.884;4.322;2023-03-21T05:47:46;12.50;99.90
22781;DHT22;11557;50.884;4.322;2023-03-21T05:50:12;12.40;99.90
22781;DHT22;11557;50.884;4.322;2023-03-21T05:52:38;12.50;99.90
22781;DHT22;11557;50.884;4.322;2023-03-21T05:55:04;12.50;99.90
22781;DHT22;11557;50.884;4.322;2023-03-21T05:57:30;12.50;99.90
22781;DHT22;11557;50.884;4.322;2023-03-21T05:59:59;12.40;99.90
22781;DHT22;11557;50.884;4.322;2023-03-21T06:02:25;12.30;99.90
22781;DHT22;11557;50.884;4.322;2023-03-21T06:04:51;12.30;99.90
22781;DHT22;11557;50.884;4.322;2023-03-21T06:07:16;12.30;99.90
22781;DHT22;11557;50.884;4.322;2023-03-21T06:09:42;12.20;99.90
22781;DHT22;11557;50.884;4.322;2023-03-21T06:12:08;12.00;99.90
22781;DHT22;11557;50.884;4.322;2023-03-21T06:14:34;12.00;99.90
22781;DHT22;11557;50.884;4.322;2023-03-21T06:17:00;12.00;99.90
22781;DHT22;11557;50.884;4.322;2023-03-21T06:19:26;11.90;99.90
22781;DHT22;11557;50.884;4.322;2023-03-21T06:21:51;11.80;99.90
22781;DHT22;11557;50.884;4.322;2023-03-21T06:24:17;11.80;99.90
22781;DHT22;11557;50.884;4.322;2023-03-21T06:26:43;11.80;99.90
22781;DHT22;11557;50.884;4.322;2023-03-21T06:29:09;11.80;99.90
22781;DHT22;11557;50.884;4.322;2023-03-21T06:31:35;11.80;99.90
22781;DHT22;11557;50.884;4.322;2023-03-21T06:34:03;11.90;99.90
22781;DHT22;11557;50.884;4.322;2023-03-21T06:36:29;12.00;99.90
22781;DHT22;11557;50.884;4.322;2023-03-21T06:38:55;11.80;99.90
22781;DHT22;11557;50.884;4.322;2023-03-21T06:41:21;11.80;99.90
22781;DHT22;11557;50.884;4.322;2023-03-21T06:43:46;12.20;99.90
22781;DHT22;11557;50.884;4.322;2023-03-21T06:46:13;11.80;99.90
22781;DHT22;11557;50.884;4.322;2023-03-21T06:48:38;11.80;99.90
22781;DHT22;11557;50.884;4.322;2023-03-21T06:51:10;11.70;99.90
22781;DHT22;11557;50.884;4.322;2023-03-21T06:53:36;11.70;99.90
22781;DHT22;11557;50.884;4.322;2023-03-21T06:56:02;11.60;99.90
22781;DHT22;11557;50.884;4.322;2023-03-21T06:58:28;11.60;99.90
22781;DHT22;11557;50.884;4.322;2023-03-21T07:00:53;11.80;99.90
22781;DHT22;11557;50.884;4.322;2023-03-21T07:03:19;11.80;99.90
22781;DHT22;11557;50.884;4.322;2023-03-21T07:05:45;11.90;99.90
22781;DHT22;11557;50.884;4.322;2023-03-21T07:08:11;11.90;99.90
22781;DHT22;11557;50.884;4.322;2023-03-21T07:10:42;11.80;99.90
22781;DHT22;11557;50.884;4.322;2023-03-21T07:13:08;11.70;99.90
22781;DHT22;11557;50.884;4.322;2023-03-21T07:15:34;11.80;99.90
22781;DHT22;11557;50.884;4.322;2023-03-21T07:18:05;11.80;99.90
22781;DHT22;11557;50.884;4.322;2023-03-21T07:20:31;11.90;99.90
22781;DHT22;11557;50.884;4.322;2023-03-21T07:22:57;11.90;99.90
22781;DHT22;11557;50.884;4.322;2023-03-21T07:25:23;12.00;99.90
22781;DHT22;11557;50.884;4.322;2023-03-21T07:27:49;12.10;99.90
22781;DHT22;11557;50.884;4.322;2023-03-21T07:30:15;12.20;99.90
22781;DHT22;11557;50.884;4.322;2023-03-21T07:32:41;12.30;99.90
22781;DHT22;11557;50.884;4.322;2023-03-21T07:35:10;12.40;99.90
22781;DHT22;11557;50.884;4.322;2023-03-21T07:37:36;12.50;99.90
22781;DHT22;11557;50.884;4.322;2023-03-21T07:40:02;12.40;99.90
22781;DHT22;11557;50.884;4.322;2023-03-21T07:42:34;12.30;99.90
22781;DHT22;11557;50.884;4.322;2023-03-21T07:45:00;12.30;99.90
22781;DHT22;11557;50.884;4.322;2023-03-21T07:47:25;12.50;99.90
22781;DHT22;11557;50.884;4.322;2023-03-21T07:49:51;12.60;99.90
22781;DHT22;11557;50.884;4.322;2023-03-21T07:52:16;12.40;99.90
22781;DHT22;11557;50.884;4.322;2023-03-21T07:54:42;12.30;99.90
22781;DHT22;11557;50.884;4.322;2023-03-21T07:57:08;12.20;99.90
22781;DHT22;11557;50.884;4.322;2023-03-21T07:59:33;12.20;99.90
22781;DHT22;11557;50.884;4.322;2023-03-21T08:01:59;12.20;99.90
22781;DHT22;11557;50.884;4.322;2023-03-21T08:04:25;12.20;99.90
22781;DHT22;11557;50.884;4.322;2023-03-21T08:06:50;12.10;99.90
22781;DHT22;11557;50.884;4.322;2023-03-21T08:09:16;12.10;99.90
22781;DHT22;11557;50.884;4.322;2023-03-21T08:11:42;12.00;99.90
22781;DHT22;11557;50.884;4.322;2023-03-21T08:14:07;12.00;99.90
22781;DHT22;11557;50.884;4.322;2023-03-21T08:16:33;12.10;99.90
22781;DHT22;11557;50.884;4.322;2023-03-21T08:18:59;12.10;99.90
22781;DHT22;11557;50.884;4.322;2023-03-21T08:21:25;12.20;99.90
22781;DHT22;11557;50.884;4.322;2023-03-21T08:23:51;12.20;99.90
22781;DHT22;11557;50.884;4.322;2023-03-21T08:26:18;12.20;99.90
22781;DHT22;11557;50.884;4.322;2023-03-21T08:28:44;12.30;99.90
22781;DHT22;11557;50.884;4.322;2023-03-21T08:31:12;12.50;99.90
22781;DHT22;11557;50.884;4.322;2023-03-21T08:33:38;12.50;99.90
22781;DHT22;11557;50.884;4.322;2023-03-21T08:36:05;12.60;99.90
22781;DHT22;11557;50.884;4.322;2023-03-21T08:38:31;12.40;99.90
22781;DHT22;11557;50.884;4.322;2023-03-21T08:41:01;12.40;99.90
22781;DHT22;11557;50.884;4.322;2023-03-21T08:43:28;12.40;99.90
22781;DHT22;11557;50.884;4.322;2023-03-21T08:45:54;12.50;99.90
22781;DHT22;11557;50.884;4.322;2023-03-21T08:48:20;12.60;99.90
22781;DHT22;11557;50.884;4.322;2023-03-21T08:50:46;12.60;99.90
22781;DHT22;11557;50.884;4.322;2023-03-21T08:53:12;12.70;99.90
22781;DHT22;11557;50.884;4.322;2023-03-21T08:55:38;12.80;99.90
22781;DHT22;11557;50.884;4.322;2023-03-21T08:58:04;12.80;99.90
22781;DHT22;11557;50.884;4.322;2023-03-21T09:00:30;12.90;99.90
22781;DHT22;11557;50.884;4.322;2023-03-21T09:02:56;13.00;99.90
22781;DHT22;11557;50.884;4.322;2023-03-21T09:05:23;13.20;99.90
22781;DHT22;11557;50.884;4.322;2023-03-21T09:07:51;13.30;99.90
22781;DHT22;11557;50.884;4.322;2023-03-21T09:10:19;13.30;99.90
22781;DHT22;11557;50.884;4.322;2023-03-21T09:12:46;13.30;99.90
22781;DHT22;11557;50.884;4.322;2023-03-21T09:15:12;13.30;99.90
22781;DHT22;11557;50.884;4.322;2023-03-21T09:17:39;13.30;99.90
22781;DHT22;11557;50.884;4.322;2023-03-21T09:20:10;13.20;99.90
22781;DHT22;11557;50.884;4.322;2023-03-21T09:22:46;13.10;99.90
22781;DHT22;11557;50.884;4.322;2023-03-21T09:25:14;13.20;99.90
22781;DHT22;11557;50.884;4.322;2023-03-21T09:27:40;13.20;99.90
22781;DHT22;11557;50.884;4.322;2023-03-21T09:30:07;13.00;99.90
22781;DHT22;11557;50.884;4.322;2023-03-21T09:32:35;13.00;99.90
22781;DHT22;11557;50.884;4.322;2023-03-21T09:35:01;13.10;99.90
22781;DHT22;11557;50.884;4.322;2023-03-21T09:37:27;13.20;99.90
22781;DHT22;11557;50.884;4.322;2023-03-21T09:39:53;13.30;99.90
22781;DHT22;11557;50.884;4.322;2023-03-21T09:47:40;13.30;99.90
22781;DHT22;11557;50.884;4.322;2023-03-21T09:52:43;13.40;99.90
22781;DHT22;11557;50.884;4.322;2023-03-21T09:55:24;13.50;99.90
22781;DHT22;11557;50.884;4.322;2023-03-21T10:01:05;13.40;99.90
22781;DHT22;11557;50.884;4.322;2023-03-21T10:03:33;13.40;99.90
22781;DHT22;11557;50.884;4.322;2023-03-21T10:06:03;13.40;99.90
22781;DHT22;11557;50.884;4.322;2023-03-21T10:08:38;13.40;99.90
22781;DHT22;11557;50.884;4.322;2023-03-21T10:11:25;13.40;99.90
22781;DHT22;11557;50.884;4.322;2023-03-21T10:16:32;13.60;99.90
22781;DHT22;11557;50.884;4.322;2023-03-21T10:19:00;13.70;99.90
22781;DHT22;11557;50.884;4.322;2023-03-21T10:21:27;13.70;99.90
22781;DHT22;11557;50.884;4.322;2023-03-21T10:23:55;13.80;99.90
22781;DHT22;11557;50.884;4.322;2023-03-21T10:26:24;13.80;99.90
22781;DHT22;11557;50.884;4.322;2023-03-21T10:28:53;13.70;99.90
22781;DHT22;11557;50.884;4.322;2023-03-21T10:31:22;13.80;99.90
22781;DHT22;11557;50.884;4.322;2023-03-21T10:33:53;13.80;99.90
22781;DHT22;11557;50.884;4.322;2023-03-21T10:36:25;14.00;99.90
22781;DHT22;11557;50.884;4.322;2023-03-21T10:38:55;14.60;99.90
22781;DHT22;11557;50.884;4.322;2023-03-21T10:41:22;14.30;99.90
22781;DHT22;11557;50.884;4.322;2023-03-21T10:44:11;14.30;99.90
22781;DHT22;11557;50.884;4.322;2023-03-21T10:46:52;14.50;99.90
22781;DHT22;11557;50.884;4.322;2023-03-21T10:49:19;14.60;99.90
22781;DHT22;11557;50.884;4.322;2023-03-21T10:51:52;14.90;99.90
22781;DHT22;11557;50.884;4.322;2023-03-21T10:54:20;15.00;99.90
22781;DHT22;11557;50.884;4.322;2023-03-21T10:57:03;14.80;99.90
22781;DHT22;11557;50.884;4.322;2023-03-21T10:59:41;14.70;99.90
22781;DHT22;11557;50.884;4.322;2023-03-21T11:02:17;14.60;99.90
22781;DHT22;11557;50.884;4.322;2023-03-21T11:04:44;14.50;99.90
22781;DHT22;11557;50.884;4.322;2023-03-21T11:07:13;14.50;99.90
22781;DHT22;11557;50.884;4.322;2023-03-21T11:09:46;14.70;99.90
22781;DHT22;11557;50.884;4.322;2023-03-21T11:12:17;14.70;99.90
22781;DHT22;11557;50.884;4.322;2023-03-21T11:14:52;14.70;99.90
22781;DHT22;11557;50.884;4.322;2023-03-21T11:17:26;14.90;99.90
22781;DHT22;11557;50.884;4.322;2023-03-21T11:20:03;14.80;99.90
22781;DHT22;11557;50.884;4.322;2023-03-21T11:22:40;14.70;99.90
22781;DHT22;11557;50.884;4.322;2023-03-21T11:25:09;14.80;99.90
22781;DHT22;11557;50.884;4.322;2023-03-21T11:27:50;14.80;99.90
22781;DHT22;11557;50.884;4.322;2023-03-21T11:30:24;14.70;99.90
22781;DHT22;11557;50.884;4.322;2023-03-21T11:32:55;14.70;99.90
22781;DHT22;11557;50.884;4.322;2023-03-21T11:35:24;14.80;99.90
22781;DHT22;11557;50.884;4.322;2023-03-21T11:37:54;14.70;99.90
22781;DHT22;11557;50.884;4.322;2023-03-21T11:40:26;14.60;99.90
22781;DHT22;11557;50.884;4.322;2023-03-21T11:42:57;14.70;99.90
22781;DHT22;11557;50.884;4.322;2023-03-21T11:45:34;14.90;99.90
22781;DHT22;11557;50.884;4.322;2023-03-21T11:48:06;15.00;99.90
22781;DHT22;11557;50.884;4.322;2023-03-21T11:50:46;15.10;99.90
22781;DHT22;11557;50.884;4.322;2023-03-21T11:53:20;15.10;99.90
22781;DHT22;11557;50.884;4.322;2023-03-21T12:04:05;14.60;99.90
22781;DHT22;11557;50.884;4.322;2023-03-21T12:06:34;15.30;99.90
22781;DHT22;11557;50.884;4.322;2023-03-21T12:09:13;15.30;99.90
22781;DHT22;11557;50.884;4.322;2023-03-21T12:14:57;15.40;99.90
22781;DHT22;11557;50.884;4.322;2023-03-21T12:17:55;16.20;99.90
22781;DHT22;11557;50.884;4.322;2023-03-21T12:20:40;15.10;99.90
22781;DHT22;11557;50.884;4.322;2023-03-21T12:25:53;15.20;99.90
22781;DHT22;11557;50.884;4.322;2023-03-21T12:39:16;15.50;99.90
22781;DHT22;11557;50.884;4.322;2023-03-21T12:44:25;15.60;99.90
22781;DHT22;11557;50.884;4.322;2023-03-21T12:49:44;15.40;99.90
22781;DHT22;11557;50.884;4.322;2023-03-21T12:52:31;15.50;99.90
22781;DHT22;11557;50.884;4.322;2023-03-21T12:55:15;15.30;99.90
22781;DHT22;11557;50.884;4.322;2023-03-21T13:00:35;15.30;99.90
22781;DHT22;11557;50.884;4.322;2023-03-21T13:03:10;15.20;99.90
22781;DHT22;11557;50.884;4.322;2023-03-21T13:05:39;15.30;99.90
22781;DHT22;11557;50.884;4.322;2023-03-21T13:10:37;15.20;99.90
22781;DHT22;11557;50.884;4.322;2023-03-21T13:13:25;15.10;99.90
22781;DHT22;11557;50.884;4.322;2023-03-21T13:24:17;15.30;99.90
22781;DHT22;11557;50.884;4.322;2023-03-21T13:26:47;15.40;99.90
22781;DHT22;11557;50.884;4.322;2023-03-21T13:29:23;15.70;99.90
22781;DHT22;11557;50.884;4.322;2023-03-21T13:31:51;15.80;99.90
22781;DHT22;11557;50.884;4.322;2023-03-21T13:34:20;16.00;99.90
22781;DHT22;11557;50.884;4.322;2023-03-21T13:36:49;16.00;99.90
22781;DHT22;11557;50.884;4.322;2023-03-21T13:39:24;15.90;99.90
22781;DHT22;11557;50.884;4.322;2023-03-21T13:41:51;15.80;99.90
22781;DHT22;11557;50.884;4.322;2023-03-21T13:46:59;15.90;99.90
22781;DHT22;11557;50.884;4.322;2023-03-21T13:49:29;15.80;99.90
22781;DHT22;11557;50.884;4.322;2023-03-21T13:51:58;15.50;99.90
22781;DHT22;11557;50.884;4.322;2023-03-21T13:54:52;15.50;99.90
22781;DHT22;11557;50.884;4.322;2023-03-21T13:57:35;15.40;99.90
22781;DHT22;11557;50.884;4.322;2023-03-21T14:00:26;15.20;99.90
22781;DHT22;11557;50.884;4.322;2023-03-21T14:03:04;15.10;99.90
22781;DHT22;11557;50.884;4.322;2023-03-21T14:05:30;15.10;99.90
22781;DHT22;11557;50.884;4.322;2023-03-21T14:08:02;15.00;99.90
22781;DHT22;11557;50.884;4.322;2023-03-21T14:10:34;15.10;99.90
22781;DHT22;11557;50.884;4.322;2023-03-21T14:13:04;15.00;99.90
22781;DHT22;11557;50.884;4.322;2023-03-21T14:15:39;14.90;99.90
22781;DHT22;11557;50.884;4.322;2023-03-21T14:18:06;15.00;99.90
22781;DHT22;11557;50.884;4.322;2023-03-21T14:20:34;14.90;99.90
22781;DHT22;11557;50.884;4.322;2023-03-21T14:23:06;14.90;99.90
22781;DHT22;11557;50.884;4.322;2023-03-21T14:25:35;14.90;99.90
22781;DHT22;11557;50.884;4.322;2023-03-21T14:28:04;14.90;99.90
22781;DHT22;11557;50.884;4.322;2023-03-21T14:30:39;15.00;99.90
22781;DHT22;11557;50.884;4.322;2023-03-21T14:33:35;14.90;99.90
22781;DHT22;11557;50.884;4.322;2023-03-21T14:36:08;14.80;99.90
22781;DHT22;11557;50.884;4.322;2023-03-21T14:38:36;14.90;99.90
22781;DHT22;11557;50.884;4.322;2023-03-21T14:41:04;14.80;99.90
22781;DHT22;11557;50.884;4.322;2023-03-21T14:43:30;14.70;99.90
22781;DHT22;11557;50.884;4.322;2023-03-21T14:45:59;14.50;99.90
22781;DHT22;11557;50.884;4.322;2023-03-21T14:48:30;14.30;99.90
22781;DHT22;11557;50.884;4.322;2023-03-21T14:51:01;14.30;99.90
22781;DHT22;11557;50.884;4.322;2023-03-21T14:53:32;14.30;99.90
22781;DHT22;11557;50.884;4.322;2023-03-21T14:56:15;14.30;99.90
22781;DHT22;11557;50.884;4.322;2023-03-21T14:58:44;14.30;99.90
22781;DHT22;11557;50.884;4.322;2023-03-21T15:01:16;14.40;99.90
22781;DHT22;11557;50.884;4.322;2023-03-21T15:03:46;14.40;99.90
22781;DHT22;11557;50.884;4.322;2023-03-21T15:06:14;14.40;99.90
22781;DHT22;11557;50.884;4.322;2023-03-21T15:08:59;14.40;99.90
22781;DHT22;11557;50.884;4.322;2023-03-21T15:11:50;14.40;99.90
22781;DHT22;11557;50.884;4.322;2023-03-21T15:14:25;14.50;99.90
22781;DHT22;11557;50.884;4.322;2023-03-21T15:16:52;14.40;99.90
22781;DHT22;11557;50.884;4.322;2023-03-21T15:19:24;14.30;99.90
22781;DHT22;11557;50.884;4.322;2023-03-21T15:21:58;14.30;99.90
22781;DHT22;11557;50.884;4.322;2023-03-21T15:24:28;14.40;99.90
22781;DHT22;11557;50.884;4.322;2023-03-21T15:27:04;14.40;99.90
22781;DHT22;11557;50.884;4.322;2023-03-21T15:29:33;14.50;99.90
22781;DHT22;11557;50.884;4.322;2023-03-21T15:32:03;14.50;99.90
22781;DHT22;11557;50.884;4.322;2023-03-21T15:34:29;14.40;99.90
22781;DHT22;11557;50.884;4.322;2023-03-21T15:37:02;14.30;99.90
22781;DHT22;11557;50.884;4.322;2023-03-21T15:39:30;14.30;99.90
22781;DHT22;11557;50.884;4.322;2023-03-21T15:42:21;14.30;99.90
22781;DHT22;11557;50.884;4.322;2023-03-21T15:44:48;14.20;99.90
22781;DHT22;11557;50.884;4.322;2023-03-21T15:52:50;13.80;99.90
22781;DHT22;11557;50.884;4.322;2023-03-21T15:55:21;13.70;99.90
22781;DHT22;11557;50.884;4.322;2023-03-21T15:57:52;13.70;99.90
22781;DHT22;11557;50.884;4.322;2023-03-21T16:00:31;13.80;99.90
22781;DHT22;11557;50.884;4.322;2023-03-21T16:03:08;13.90;99.90
22781;DHT22;11557;50.884;4.322;2023-03-21T16:05:38;13.90;99.90
22781;DHT22;11557;50.884;4.322;2023-03-21T16:08:05;13.90;99.90
22781;DHT22;11557;50.884;4.322;2023-03-21T16:10:41;13.80;99.90
22781;DHT22;11557;50.884;4.322;2023-03-21T16:13:10;13.80;99.90
22781;DHT22;11557;50.884;4.322;2023-03-21T16:15:38;13.80;99.90
22781;DHT22;11557;50.884;4.322;2023-03-21T16:18:04;13.80;99.90
22781;DHT22;11557;50.884;4.322;2023-03-21T16:20:34;14.00;99.90
22781;DHT22;11557;50.884;4.322;2023-03-21T16:23:01;14.00;99.90
22781;DHT22;11557;50.884;4.322;2023-03-21T16:25:31;14.00;99.90
22781;DHT22;11557;50.884;4.322;2023-03-21T16:27:57;14.00;99.90
22781;DHT22;11557;50.884;4.322;2023-03-21T16:30:23;13.90;99.90
22781;DHT22;11557;50.884;4.322;2023-03-21T16:32:50;14.20;99.90
22781;DHT22;11557;50.884;4.322;2023-03-21T16:35:16;14.40;99.90
22781;DHT22;11557;50.884;4.322;2023-03-21T16:37:42;14.50;99.90
22781;DHT22;11557;50.884;4.322;2023-03-21T16:40:16;14.90;99.90
22781;DHT22;11557;50.884;4.322;2023-03-21T16:42:46;15.10;99.90
22781;DHT22;11557;50.884;4.322;2023-03-21T16:45:12;15.40;99.90
22781;DHT22;11557;50.884;4.322;2023-03-21T16:47:38;15.30;99.90
22781;DHT22;11557;50.884;4.322;2023-03-21T16:52:45;14.80;99.90
22781;DHT22;11557;50.884;4.322;2023-03-21T16:55:11;14.60;99.90
22781;DHT22;11557;50.884;4.322;2023-03-21T16:57:37;14.40;99.90
22781;DHT22;11557;50.884;4.322;2023-03-21T17:00:04;14.30;99.90
22781;DHT22;11557;50.884;4.322;2023-03-21T17:02:37;14.10;99.90
22781;DHT22;11557;50.884;4.322;2023-03-21T17:05:03;14.10;99.90
22781;DHT22;11557;50.884;4.322;2023-03-21T17:07:31;14.20;99.90
22781;DHT22;11557;50.884;4.322;2023-03-21T17:09:57;14.20;99.90
22781;DHT22;11557;50.884;4.322;2023-03-21T17:12:23;14.30;99.90
22781;DHT22;11557;50.884;4.322;2023-03-21T17:14:49;14.20;99.90
22781;DHT22;11557;50.884;4.322;2023-03-21T17:17:16;14.20;99.90
22781;DHT22;11557;50.884;4.322;2023-03-21T17:19:41;14.10;99.90
22781;DHT22;11557;50.884;4.322;2023-03-21T17:22:09;14.10;99.90
22781;DHT22;11557;50.884;4.322;2023-03-21T17:24:35;14.10;99.90
22781;DHT22;11557;50.884;4.322;2023-03-21T17:27:02;14.20;99.90